Time;durP1;ratioP1;P1;durP2;ratioP2;P2;SDS_P1;SDS_P2;PMS_P1;PMS_P2;Temp;Humidity;BMP_temperature;BMP_pressure;BME280_temperature;BME280_humidity;BME280_pressure;Samples;Min_cycle;Max_cycle;Signal;HPM_P1;HPM_P2
2021/11/21 08:53:45;;;;;;;12.90;3.53;;;9.40;91.20;;;;;;5063334;28;20128;-70
2021/11/21 08:56:11;;;;;;;10.10;2.95;;;9.40;91.20;;;;;;5060781;28;20049;-69
2021/11/21 08:58:37;;;;;;;12.00;3.60;;;9.40;91.00;;;;;;5063004;28;20064;-71
2021/11/21 09:01:03;;;;;;;11.43;3.38;;;9.40;91.10;;;;;;5064904;28;20648;-70
2021/11/21 09:03:30;;;;;;;7.00;2.60;;;9.40;91.10;;;;;;5041937;28;20502;-73
2021/11/21 09:05:56;;;;;;;12.93;3.00;;;9.40;91.00;;;;;;5032083;28;20484;-68
2021/11/21 09:08:24;;;;;;;9.23;2.47;;;9.40;90.90;;;;;;5034732;28;20075;-71
2021/11/21 09:10:51;;;;;;;10.23;2.28;;;9.40;90.70;;;;;;5037488;28;20043;-71
2021/11/21 09:13:17;;;;;;;13.23;2.88;;;9.30;88.60;;;;;;5019913;28;20288;-70
2021/11/21 09:15:43;;;;;;;11.25;3.03;;;9.20;88.90;;;;;;5028425;28;20395;-69
2021/11/21 09:18:09;;;;;;;8.98;3.00;;;9.20;89.10;;;;;;5031212;28;20025;-73
2021/11/21 09:20:35;;;;;;;9.40;2.35;;;9.20;89.20;;;;;;5025890;28;20459;-71
2021/11/21 09:23:09;;;;;;;13.20;2.20;;;9.20;88.90;;;;;;5027075;28;20540;-70
2021/11/21 09:25:34;;;;;;;8.00;2.30;;;9.20;89.00;;;;;;5026448;28;20626;-73
2021/11/21 09:28:00;;;;;;;10.68;2.03;;;9.30;89.20;;;;;;5030129;28;20033;-72
2021/11/21 09:30:26;;;;;;;6.60;1.90;;;9.30;88.80;;;;;;5038031;28;20139;-70
2021/11/21 09:32:52;;;;;;;8.65;2.50;;;9.30;88.60;;;;;;5020387;28;20033;-70
2021/11/21 09:35:18;;;;;;;7.75;2.38;;;9.40;88.60;;;;;;5029548;28;20044;-72
2021/11/21 09:37:44;;;;;;;9.65;2.33;;;9.40;88.20;;;;;;5033895;28;20042;-72
2021/11/21 09:40:10;;;;;;;7.85;2.63;;;9.40;88.40;;;;;;5045535;28;20040;-74
2021/11/21 09:42:37;;;;;;;10.05;2.75;;;9.30;88.00;;;;;;5026325;28;20041;-72
2021/11/21 09:45:08;;;;;;;11.43;3.17;;;9.40;88.40;;;;;;5025944;28;20800;-68
2021/11/21 09:47:33;;;;;;;8.30;2.35;;;9.50;88.70;;;;;;5018792;28;20037;-74
2021/11/21 09:50:11;;;;;;;13.98;2.63;;;9.60;88.50;;;;;;5031845;28;20036;-74
2021/11/21 09:52:37;;;;;;;11.65;2.97;;;9.60;88.40;;;;;;5029029;28;20041;-73
2021/11/21 09:55:07;;;;;;;8.38;2.65;;;9.70;88.30;;;;;;5024027;28;20386;-71
2021/11/21 09:57:36;;;;;;;12.95;2.90;;;9.70;88.30;;;;;;5023272;28;20049;-74
2021/11/21 10:00:08;;;;;;;10.88;3.60;;;9.70;87.80;;;;;;5025284;28;20421;-73
2021/11/21 10:02:40;;;;;;;11.18;3.70;;;9.80;87.90;;;;;;5012444;28;20040;-76
2021/11/21 10:05:15;;;;;;;11.00;3.30;;;9.80;88.10;;;;;;5023151;28;20465;-71
2021/11/21 10:07:41;;;;;;;8.25;2.47;;;9.70;87.90;;;;;;5026367;28;20302;-69
2021/11/21 10:10:13;;;;;;;9.48;2.80;;;9.60;87.90;;;;;;5024810;28;20555;-73
2021/11/21 10:12:41;;;;;;;10.50;2.60;;;9.60;88.00;;;;;;5026566;28;20099;-68
2021/11/21 10:15:08;;;;;;;9.35;2.13;;;9.50;87.60;;;;;;5025878;28;20052;-74
2021/11/21 10:17:36;;;;;;;9.13;2.40;;;9.30;87.10;;;;;;5046995;28;20273;-72
2021/11/21 10:20:18;;;;;;;5.80;1.83;;;9.20;86.40;;;;;;5022742;28;20179;-69
2021/11/21 10:23:01;;;;;;;9.07;2.40;;;9.10;86.30;;;;;;5043946;28;20109;-73
2021/11/21 10:25:33;;;;;;;7.38;1.73;;;9.10;86.00;;;;;;5031025;28;20094;-71
2021/11/21 10:28:28;;;;;;;8.20;2.20;;;9.10;85.20;;;;;;5022325;28;20043;-74
2021/11/21 10:31:00;;;;;;;5.38;1.75;;;9.10;85.30;;;;;;5049057;28;20094;-74
2021/11/21 10:33:34;;;;;;;5.00;1.80;;;9.10;85.20;;;;;;5038090;28;20021;-71
2021/11/21 10:36:13;;;;;;;7.18;1.63;;;9.10;85.40;;;;;;5058548;28;20031;-72
2021/11/21 10:38:51;;;;;;;8.85;2.03;;;9.20;85.20;;;;;;5040567;28;20102;-74
2021/11/21 10:41:31;;;;;;;6.43;2.00;;;9.30;85.40;;;;;;5023708;28;20064;-71
2021/11/21 10:44:07;;;;;;;7.57;2.25;;;9.30;85.60;;;;;;5044822;28;20028;-68
2021/11/21 10:46:48;;;;;;;9.43;2.15;;;9.30;85.70;;;;;;5045521;28;20112;-68
2021/11/21 10:49:31;;;;;;;7.90;2.63;;;9.30;85.80;;;;;;5037850;28;20469;-69
2021/11/21 10:51:57;;;;;;;10.07;2.38;;;9.30;86.40;;;;;;5053368;28;20477;-67
2021/11/21 10:54:26;;;;;;;10.07;2.33;;;9.30;86.50;;;;;;5039809;28;20076;-68
2021/11/21 10:56:57;;;;;;;9.90;2.13;;;9.40;86.80;;;;;;5045827;28;20032;-71
2021/11/21 10:59:49;;;;;;;8.65;2.30;;;9.50;86.30;;;;;;5026767;28;20503;-72
2021/11/21 11:02:26;;;;;;;10.90;2.53;;;9.50;86.30;;;;;;5044753;28;20386;-68
2021/11/21 11:05:24;;;;;;;13.63;3.35;;;9.60;86.10;;;;;;5045984;28;20123;-70
2021/11/21 11:07:56;;;;;;;9.23;2.95;;;9.70;86.10;;;;;;5028484;28;20052;-73
2021/11/21 11:10:32;;;;;;;10.88;2.90;;;9.80;86.20;;;;;;5041845;28;20041;-69
2021/11/21 11:13:06;;;;;;;9.52;2.50;;;9.90;85.80;;;;;;5049305;28;20037;-72
2021/11/21 11:15:35;;;;;;;9.13;2.78;;;10.00;85.90;;;;;;5048564;28;20390;-74
2021/11/21 11:18:01;;;;;;;10.02;2.95;;;10.10;86.00;;;;;;5046247;28;20108;-69
2021/11/21 11:20:27;;;;;;;9.93;2.97;;;10.30;85.70;;;;;;5056969;28;20105;-74
2021/11/21 11:22:55;;;;;;;7.90;2.30;;;10.30;84.70;;;;;;5044883;28;20033;-74
2021/11/21 11:25:23;;;;;;;9.32;2.90;;;10.40;84.70;;;;;;5047771;28;20353;-72
2021/11/21 11:28:11;;;;;;;12.63;2.90;;;10.40;84.60;;;;;;5051768;28;20032;-72
2021/11/21 11:30:38;;;;;;;13.40;3.03;;;10.40;84.20;;;;;;5044660;28;20544;-72
2021/11/21 11:33:11;;;;;;;13.40;4.20;;;10.30;84.70;;;;;;5054545;28;20029;-72
2021/11/21 11:35:39;;;;;;;13.68;3.50;;;10.30;84.60;;;;;;5050663;28;20297;-71
2021/11/21 11:38:12;;;;;;;13.27;4.50;;;10.20;83.20;;;;;;5060880;28;20546;-69
2021/11/21 11:40:42;;;;;;;9.95;3.42;;;10.20;84.00;;;;;;5062819;28;20041;-69
2021/11/21 11:43:20;;;;;;;12.18;2.90;;;10.20;84.70;;;;;;5057465;28;20033;-69
2021/11/21 11:45:59;;;;;;;13.13;3.30;;;10.20;84.80;;;;;;5057207;28;20317;-72
2021/11/21 11:48:39;;;;;;;12.95;3.75;;;10.20;84.50;;;;;;5056587;28;20041;-68
2021/11/21 11:51:11;;;;;;;14.82;4.10;;;10.30;84.80;;;;;;5051472;28;20529;-69
2021/11/21 11:53:45;;;;;;;18.08;3.10;;;10.30;84.60;;;;;;5047875;28;20028;-68
2021/11/21 11:56:41;;;;;;;13.93;4.07;;;10.30;85.50;;;;;;5050009;28;20041;-67
2021/11/21 11:59:47;;;;;;;13.48;3.10;;;10.40;85.70;;;;;;5048999;28;20482;-69
2021/11/21 12:02:33;;;;;;;14.40;3.47;;;10.50;85.00;;;;;;5043727;28;20173;-73
2021/11/21 12:05:03;;;;;;;11.60;3.47;;;10.40;84.20;;;;;;5055256;28;20029;-71
2021/11/21 12:07:37;;;;;;;14.02;4.15;;;10.50;84.00;;;;;;5064549;28;20090;-70
2021/11/21 12:10:14;;;;;;;11.50;3.42;;;10.40;83.20;;;;;;5064208;28;20093;-70
2021/11/21 12:12:52;;;;;;;13.63;3.03;;;10.50;82.90;;;;;;5062561;28;20482;-69
2021/11/21 12:15:49;;;;;;;15.95;3.80;;;10.50;83.00;;;;;;5038378;28;20048;-73
2021/11/21 12:18:15;;;;;;;12.05;3.15;;;10.40;82.70;;;;;;5044399;28;20306;-70
2021/11/21 12:20:53;;;;;;;12.18;3.30;;;10.40;82.70;;;;;;5064286;28;20106;-70
2021/11/21 12:23:41;;;;;;;8.73;3.17;;;10.40;83.10;;;;;;5051134;28;20488;-69
2021/11/21 12:26:32;;;;;;;12.77;3.33;;;10.40;82.80;;;;;;5035597;28;20037;-70
2021/11/21 12:29:18;;;;;;;12.68;3.42;;;10.30;82.40;;;;;;5025977;28;20053;-69
2021/11/21 12:31:47;;;;;;;13.77;3.65;;;10.20;81.60;;;;;;5062686;28;20043;-70
2021/11/21 12:34:29;;;;;;;29.90;5.47;;;10.40;82.40;;;;;;5065521;28;20037;-71
2021/11/21 12:37:06;;;;;;;15.30;4.13;;;10.60;82.20;;;;;;5055719;28;20478;-70
2021/11/21 12:39:33;;;;;;;11.80;2.75;;;10.80;82.30;;;;;;5056137;28;20045;-70
2021/11/21 12:42:03;;;;;;;14.02;2.90;;;10.90;81.10;;;;;;5050147;28;20528;-79
2021/11/21 12:44:29;;;;;;;8.82;2.60;;;11.10;80.40;;;;;;5052214;28;20058;-72
2021/11/21 12:47:02;;;;;;;10.82;2.60;;;11.10;79.10;;;;;;5058530;28;20483;-76
2021/11/21 12:49:28;;;;;;;12.85;3.03;;;11.10;79.10;;;;;;5057264;28;20042;-69
2021/11/21 12:52:13;;;;;;;12.73;2.28;;;11.10;77.90;;;;;;5063455;28;20469;-71
2021/11/21 12:54:39;;;;;;;10.02;2.15;;;11.20;77.70;;;;;;5059198;28;20041;-69
2021/11/21 12:57:06;;;;;;;8.88;3.08;;;11.30;76.50;;;;;;5035388;28;20090;-70
2021/11/21 12:59:58;;;;;;;10.63;2.47;;;11.20;76.70;;;;;;5050832;28;20133;-69
2021/11/21 13:02:27;;;;;;;14.07;3.38;;;11.30;77.10;;;;;;5054604;28;20036;-70
2021/11/21 13:04:57;;;;;;;9.45;2.55;;;11.40;76.90;;;;;;5045176;28;20476;-70
2021/11/21 13:07:31;;;;;;;8.93;2.53;;;11.60;75.70;;;;;;5040065;28;20037;-69
2021/11/21 13:10:10;;;;;;;10.70;2.33;;;11.40;75.00;;;;;;5041863;28;20495;-72
2021/11/21 13:12:40;;;;;;;10.13;2.83;;;11.50;74.60;;;;;;5065019;28;20029;-69
2021/11/21 13:15:10;;;;;;;9.73;3.38;;;11.50;75.20;;;;;;5051773;28;20469;-70
2021/11/21 13:17:36;;;;;;;8.70;2.10;;;11.60;75.30;;;;;;5037423;28;20037;-73
2021/11/21 13:20:08;;;;;;;4.50;1.38;;;11.30;72.20;;;;;;5040670;28;20134;-69
2021/11/21 13:22:52;;;;;;;3.53;1.30;;;10.90;69.60;;;;;;5043196;28;20125;-69
2021/11/21 13:25:41;;;;;;;6.18;2.13;;;10.40;70.30;;;;;;5042608;28;20041;-71
2021/11/21 13:28:45;;;;;;;6.88;1.40;;;10.00;73.80;;;;;;5034100;28;20041;-71
2021/11/21 13:31:21;;;;;;;4.35;1.45;;;9.60;77.90;;;;;;5044976;28;20041;-71
2021/11/21 13:34:05;;;;;;;7.82;1.88;;;9.50;79.20;;;;;;5043304;28;20059;-69
2021/11/21 13:36:37;;;;;;;5.22;1.30;;;9.30;79.00;;;;;;5051534;28;20037;-70
2021/11/21 13:39:08;;;;;;;8.68;3.13;;;9.20;78.80;;;;;;5038005;28;20041;-72
2021/11/21 13:41:37;;;;;;;10.65;3.58;;;9.30;78.90;;;;;;5042210;28;20288;-71
2021/11/21 13:44:18;;;;;;;11.73;4.55;;;9.20;79.20;;;;;;5037292;28;20116;-73
2021/11/21 13:46:47;;;;;;;12.95;6.30;;;9.20;80.50;;;;;;5042323;28;20520;-69
2021/11/21 13:49:20;;;;;;;8.52;3.17;;;9.20;81.30;;;;;;5044680;28;20628;-71
2021/11/21 13:51:57;;;;;;;11.40;4.70;;;9.20;81.40;;;;;;5055983;28;20037;-74
2021/11/21 13:54:28;;;;;;;9.80;2.97;;;9.10;81.60;;;;;;5050152;28;20040;-71
2021/11/21 13:56:54;;;;;;;9.32;2.83;;;9.20;82.10;;;;;;5042320;28;20033;-71
2021/11/21 13:59:21;;;;;;;7.22;2.45;;;9.20;82.20;;;;;;5041297;28;20071;-71
2021/11/21 14:01:50;;;;;;;8.25;2.58;;;9.20;82.80;;;;;;5060163;28;20029;-70
2021/11/21 14:04:18;;;;;;;10.40;2.50;;;9.20;83.00;;;;;;5036117;28;20033;-69
2021/11/21 14:06:44;;;;;;;9.40;2.15;;;9.20;83.20;;;;;;5038697;28;20433;-69
2021/11/21 14:09:12;;;;;;;6.20;1.52;;;9.30;83.40;;;;;;5047860;28;20040;-69
2021/11/21 14:11:41;;;;;;;10.40;2.88;;;9.30;83.30;;;;;;5050146;28;20039;-69
2021/11/21 14:14:16;;;;;;;6.70;2.17;;;9.40;83.20;;;;;;5052258;28;20468;-71
2021/11/21 14:16:49;;;;;;;11.85;2.30;;;9.40;83.20;;;;;;5037271;28;20037;-70
2021/11/21 14:19:31;;;;;;;7.38;1.92;;;9.50;82.70;;;;;;5039756;28;20041;-69
2021/11/21 14:22:13;;;;;;;6.57;2.20;;;9.50;82.20;;;;;;5035744;28;20029;-71
2021/11/21 14:24:41;;;;;;;8.30;2.47;;;9.60;82.20;;;;;;5057763;28;20474;-71
2021/11/21 14:27:10;;;;;;;10.82;2.28;;;9.60;82.20;;;;;;5046997;28;20059;-73
2021/11/21 14:29:35;;;;;;;9.60;2.83;;;9.70;81.90;;;;;;5052378;28;20130;-69
2021/11/21 14:32:02;;;;;;;8.55;2.33;;;9.70;81.50;;;;;;5052342;28;20411;-70
2021/11/21 14:34:32;;;;;;;10.13;2.30;;;9.70;81.30;;;;;;5057342;28;20038;-70
2021/11/21 14:36:58;;;;;;;6.97;1.95;;;9.80;81.10;;;;;;5053709;28;20033;-71
2021/11/21 14:39:26;;;;;;;6.75;2.50;;;9.90;81.00;;;;;;5051227;28;20340;-77
2021/11/21 14:42:01;;;;;;;13.60;4.10;;;10.00;81.30;;;;;;5038169;28;20639;-73
2021/11/21 14:44:27;;;;;;;11.05;3.00;;;10.00;80.70;;;;;;5069214;28;20028;-70
2021/11/21 14:46:53;;;;;;;8.80;2.40;;;9.90;81.20;;;;;;5038818;28;20330;-73
2021/11/21 14:49:26;;;;;;;10.55;3.05;;;9.80;81.90;;;;;;5039161;28;20098;-71
2021/11/21 14:51:52;;;;;;;7.57;1.80;;;9.70;82.40;;;;;;5054488;28;20538;-69
2021/11/21 14:54:21;;;;;;;7.47;2.30;;;9.30;81.30;;;;;;5040564;28;20033;-72
2021/11/21 14:56:58;;;;;;;9.45;2.40;;;9.10;81.90;;;;;;5038222;28;20060;-70
2021/11/21 14:59:24;;;;;;;12.88;3.15;;;9.00;82.00;;;;;;5039902;28;20049;-69
2021/11/21 15:01:49;;;;;;;8.55;2.53;;;9.00;82.80;;;;;;5045369;28;20040;-73
2021/11/21 15:04:15;;;;;;;11.73;2.67;;;8.90;83.50;;;;;;5046968;28;20400;-70
2021/11/21 15:06:41;;;;;;;8.60;2.67;;;8.90;83.90;;;;;;5049484;28;20060;-72
2021/11/21 15:09:08;;;;;;;11.40;2.92;;;8.80;83.40;;;;;;5046053;28;20041;-69
2021/11/21 15:11:36;;;;;;;13.95;3.40;;;8.90;83.50;;;;;;5042780;28;20034;-70
2021/11/21 15:14:03;;;;;;;12.48;2.95;;;8.80;83.70;;;;;;5041710;28;20071;-69
2021/11/21 15:16:29;;;;;;;10.05;2.28;;;8.80;83.40;;;;;;5039275;28;20041;-70
2021/11/21 15:18:55;;;;;;;12.55;2.75;;;8.80;83.20;;;;;;5038029;28;20032;-68
2021/11/21 15:21:21;;;;;;;9.23;1.90;;;8.80;83.30;;;;;;5051133;28;20044;-70
2021/11/21 15:23:48;;;;;;;12.27;2.10;;;8.70;82.70;;;;;;5029419;28;20151;-76
2021/11/21 15:26:17;;;;;;;13.80;4.20;;;8.70;83.20;;;;;;5036113;28;20060;-71
2021/11/21 15:28:44;;;;;;;9.50;2.28;;;8.60;83.40;;;;;;5040266;28;20042;-70
2021/11/21 15:31:11;;;;;;;14.35;2.80;;;8.50;83.70;;;;;;5031784;28;20485;-72
2021/11/21 15:33:37;;;;;;;9.05;2.55;;;8.40;84.00;;;;;;5050114;28;20032;-70
2021/11/21 15:36:04;;;;;;;13.68;3.22;;;8.30;84.20;;;;;;5029333;28;20045;-69
2021/11/21 15:38:31;;;;;;;12.18;2.83;;;8.20;85.30;;;;;;5045300;28;20472;-70
2021/11/21 15:40:58;;;;;;;9.57;2.85;;;8.10;85.90;;;;;;5049413;28;20091;-70
2021/11/21 15:43:24;;;;;;;11.75;3.40;;;8.10;85.90;;;;;;5042353;28;20111;-70
2021/11/21 15:45:50;;;;;;;14.20;3.00;;;8.10;86.30;;;;;;5052661;28;20094;-73
2021/11/21 15:48:17;;;;;;;12.85;4.28;;;8.10;86.10;;;;;;5061570;28;20095;-70
2021/11/21 15:50:45;;;;;;;20.30;6.93;;;8.10;86.30;;;;;;5050756;28;20473;-72
2021/11/21 15:53:11;;;;;;;28.42;9.00;;;8.10;86.00;;;;;;5047722;28;20051;-78
2021/11/21 15:55:37;;;;;;;19.90;5.93;;;8.10;86.20;;;;;;5052072;28;20033;-71
2021/11/21 15:58:02;;;;;;;8.75;3.20;;;8.00;86.50;;;;;;5033172;28;20045;-69
2021/11/21 16:00:29;;;;;;;11.10;3.33;;;8.10;86.70;;;;;;5049216;28;20075;-70
2021/11/21 16:02:55;;;;;;;12.25;4.70;;;8.10;86.90;;;;;;5031718;28;20071;-69
2021/11/21 16:05:20;;;;;;;12.70;5.63;;;8.00;87.10;;;;;;5030731;28;20482;-71
2021/11/21 16:07:47;;;;;;;15.65;5.35;;;8.00;87.30;;;;;;5047672;28;20056;-70
2021/11/21 16:10:18;;;;;;;13.93;5.30;;;8.00;87.20;;;;;;5034142;28;20041;-73
2021/11/21 16:12:45;;;;;;;16.48;5.80;;;7.90;87.20;;;;;;5031529;28;20056;-74
2021/11/21 16:15:11;;;;;;;17.20;8.40;;;7.90;87.30;;;;;;5031928;28;20477;-70
2021/11/21 16:17:37;;;;;;;12.98;7.18;;;7.90;87.10;;;;;;5033653;28;20388;-73
2021/11/21 16:20:05;;;;;;;13.25;6.80;;;7.90;87.30;;;;;;5063821;28;20037;-70
2021/11/21 16:22:31;;;;;;;15.05;7.78;;;7.80;87.30;;;;;;5042944;28;20034;-73
2021/11/21 16:24:57;;;;;;;11.80;6.45;;;7.70;87.40;;;;;;5031402;28;20048;-72
2021/11/21 16:27:24;;;;;;;13.40;6.78;;;7.70;87.50;;;;;;5051043;28;20427;-73
2021/11/21 16:29:50;;;;;;;12.00;7.20;;;7.70;87.60;;;;;;5036553;28;20053;-78
2021/11/21 16:32:16;;;;;;;21.05;12.10;;;7.70;87.70;;;;;;5037271;28;20037;-70
2021/11/21 16:34:42;;;;;;;55.58;25.67;;;7.60;87.70;;;;;;5052781;28;20468;-71
2021/11/21 16:37:10;;;;;;;115.03;50.67;;;7.60;87.80;;;;;;5039324;28;20116;-71
2021/11/21 16:39:37;;;;;;;135.43;59.80;;;7.60;87.80;;;;;;5038111;28;20061;-70
2021/11/21 16:42:04;;;;;;;79.18;39.80;;;7.70;87.60;;;;;;5034091;28;20033;-71
2021/11/21 16:44:30;;;;;;;63.85;32.38;;;7.60;87.60;;;;;;5035765;28;20354;-70
2021/11/21 16:46:57;;;;;;;65.50;34.67;;;7.60;87.70;;;;;;5034834;28;20025;-74
2021/11/21 16:49:23;;;;;;;50.22;32.15;;;7.60;87.70;;;;;;5035693;28;20094;-72
2021/11/21 16:51:49;;;;;;;38.50;29.00;;;7.50;87.80;;;;;;5038103;28;20045;-77
2021/11/21 16:54:14;;;;;;;35.75;27.55;;;7.50;88.00;;;;;;5032185;28;20089;-70
2021/11/21 16:56:40;;;;;;;28.77;20.60;;;7.40;87.90;;;;;;5034028;28;20045;-74
2021/11/21 16:59:06;;;;;;;24.00;14.60;;;7.40;87.80;;;;;;5036662;28;20132;-73
2021/11/21 17:01:36;;;;;;;18.42;8.90;;;7.40;87.90;;;;;;5044731;28;20040;-72
2021/11/21 17:04:04;;;;;;;16.45;7.85;;;7.40;87.80;;;;;;5042215;28;20034;-73
2021/11/21 17:06:30;;;;;;;16.70;8.10;;;7.40;87.60;;;;;;5054696;28;20068;-71
2021/11/21 17:08:57;;;;;;;16.33;8.65;;;7.30;87.70;;;;;;5042526;28;20111;-71
2021/11/21 17:11:23;;;;;;;22.88;11.77;;;7.20;87.80;;;;;;5038844;28;20441;-75
2021/11/21 17:13:49;;;;;;;23.05;12.80;;;7.20;87.80;;;;;;5046456;28;20048;-71
2021/11/21 17:16:15;;;;;;;21.38;11.88;;;7.20;87.70;;;;;;5042188;28;20443;-76
2021/11/21 17:18:41;;;;;;;20.33;11.27;;;7.10;87.70;;;;;;5075839;28;20401;-71
2021/11/21 17:21:07;;;;;;;17.55;9.82;;;7.10;87.80;;;;;;5040667;28;20053;-72
2021/11/21 17:23:33;;;;;;;20.60;10.20;;;7.10;87.90;;;;;;5068888;28;20051;-78
2021/11/21 17:26:00;;;;;;;19.88;10.32;;;7.10;88.00;;;;;;5023673;28;20040;-81
2021/11/21 17:28:27;;;;;;;18.08;9.80;;;7.00;87.90;;;;;;5027566;28;20086;-76
2021/11/21 17:30:55;;;;;;;20.40;10.48;;;7.00;88.00;;;;;;5037529;28;20081;-74
2021/11/21 17:33:25;;;;;;;16.33;8.00;;;7.00;88.10;;;;;;5025816;28;20045;-78
2021/11/21 17:35:51;;;;;;;15.73;7.47;;;7.00;88.00;;;;;;5026115;28;20064;-71
2021/11/21 17:38:17;;;;;;;16.38;8.15;;;6.90;88.10;;;;;;5038565;28;21473;-78
2021/11/21 17:40:43;;;;;;;20.75;8.65;;;6.90;88.00;;;;;;5049728;28;20136;-82
2021/11/21 17:43:10;;;;;;;16.38;9.05;;;6.80;88.10;;;;;;5051518;28;20035;-72
2021/11/21 17:45:36;;;;;;;18.08;9.13;;;6.80;88.20;;;;;;5050871;28;20028;-78
2021/11/21 17:48:03;;;;;;;16.35;9.82;;;6.90;88.20;;;;;;5053846;28;20138;-81
2021/11/21 17:50:29;;;;;;;14.68;8.05;;;6.90;88.10;;;;;;5050222;28;20468;-75
2021/11/21 17:52:55;;;;;;;13.73;8.85;;;6.80;88.20;;;;;;5055516;28;20443;-73
2021/11/21 17:55:22;;;;;;;18.30;8.32;;;6.90;88.00;;;;;;5048639;28;20028;-74
2021/11/21 17:57:48;;;;;;;13.82;6.80;;;6.80;88.00;;;;;;5050915;28;20033;-80
2021/11/21 18:00:15;;;;;;;18.00;9.70;;;6.90;87.90;;;;;;5053565;28;20389;-76
2021/11/21 18:02:41;;;;;;;13.55;7.32;;;6.90;87.80;;;;;;5065090;28;20756;-78
2021/11/21 18:05:09;;;;;;;17.73;6.97;;;6.90;87.70;;;;;;5048769;28;20028;-78
2021/11/21 18:07:35;;;;;;;13.52;5.75;;;7.00;87.40;;;;;;5046566;28;20030;-74
2021/11/21 18:10:07;;;;;;;13.30;4.68;;;7.10;86.80;;;;;;5044996;28;20335;-75
2021/11/21 18:12:33;;;;;;;11.60;4.70;;;7.10;86.60;;;;;;5054959;28;20578;-75
2021/11/21 18:15:01;;;;;;;14.32;5.50;;;7.10;86.50;;;;;;5044016;28;20124;-76
2021/11/21 18:17:30;;;;;;;11.73;5.20;;;7.10;86.40;;;;;;5049322;28;20496;-77
2021/11/21 18:19:58;;;;;;;12.45;5.30;;;7.10;86.40;;;;;;5042793;28;20120;-78
2021/11/21 18:22:25;;;;;;;10.63;4.50;;;7.10;86.40;;;;;;5045073;28;20025;-80
2021/11/21 18:24:52;;;;;;;12.48;4.45;;;7.00;86.40;;;;;;5041872;28;20041;-78
2021/11/21 18:27:21;;;;;;;10.55;4.47;;;7.00;86.60;;;;;;5042402;28;20036;-72
2021/11/21 18:29:47;;;;;;;12.85;4.15;;;7.00;86.70;;;;;;5041693;28;20091;-75
2021/11/21 18:32:14;;;;;;;15.55;6.88;;;6.90;86.50;;;;;;5039778;28;20033;-79
2021/11/21 18:34:40;;;;;;;14.32;7.85;;;6.80;86.50;;;;;;5047668;28;20032;-73
2021/11/21 18:37:06;;;;;;;12.07;5.03;;;6.80;86.10;;;;;;5055179;28;20036;-76
2021/11/21 18:39:32;;;;;;;9.00;4.03;;;6.90;85.60;;;;;;5054939;28;20217;-74
2021/11/21 18:41:58;;;;;;;11.52;4.45;;;6.80;85.30;;;;;;5060729;28;20039;-72
2021/11/21 18:44:23;;;;;;;10.65;4.30;;;6.80;85.10;;;;;;5057539;28;20120;-76
2021/11/21 18:46:51;;;;;;;9.48;3.65;;;6.80;85.00;;;;;;5060361;28;20124;-74
2021/11/21 18:49:18;;;;;;;10.43;3.28;;;6.80;85.10;;;;;;5058816;28;20064;-73
2021/11/21 18:51:44;;;;;;;11.48;4.45;;;6.70;85.30;;;;;;5060556;28;20032;-71
2021/11/21 18:54:11;;;;;;;14.10;6.40;;;6.70;85.50;;;;;;5054135;28;20039;-74
2021/11/21 18:56:40;;;;;;;15.45;6.55;;;6.60;85.70;;;;;;5062596;28;20044;-71
2021/11/21 18:59:20;;;;;;;15.60;6.70;;;6.60;85.80;;;;;;5060497;28;20032;-76
2021/11/21 19:01:52;;;;;;;12.55;7.88;;;6.60;86.10;;;;;;5058635;28;20052;-70
2021/11/21 19:04:18;;;;;;;17.75;10.70;;;6.50;86.30;;;;;;5055226;28;20423;-72
2021/11/21 19:06:50;;;;;;;21.75;13.75;;;6.40;86.60;;;;;;5059067;28;20049;-70
2021/11/21 19:09:17;;;;;;;21.88;13.40;;;6.50;86.80;;;;;;5057566;28;20064;-71
2021/11/21 19:11:44;;;;;;;16.35;7.97;;;6.40;86.90;;;;;;5059762;28;20029;-71
2021/11/21 19:14:10;;;;;;;11.95;6.70;;;6.30;87.00;;;;;;5053550;28;20086;-71
2021/11/21 19:16:36;;;;;;;15.18;8.00;;;6.30;87.30;;;;;;5055314;28;20381;-74
2021/11/21 19:19:03;;;;;;;31.98;14.43;;;6.20;87.30;;;;;;5045545;28;20036;-72
2021/11/21 19:21:28;;;;;;;24.10;11.38;;;6.10;87.50;;;;;;5040667;28;20055;-74
2021/11/21 19:23:54;;;;;;;12.13;6.20;;;6.10;87.60;;;;;;5042109;28;20041;-72
2021/11/21 19:26:22;;;;;;;12.52;5.78;;;6.10;87.50;;;;;;5037125;28;20037;-71
2021/11/21 19:28:48;;;;;;;11.73;5.68;;;6.10;87.70;;;;;;5042685;28;20025;-71
2021/11/21 19:31:13;;;;;;;12.70;6.32;;;6.10;87.80;;;;;;5032928;28;20688;-77
2021/11/21 19:33:40;;;;;;;12.57;5.80;;;6.10;87.90;;;;;;5039249;28;20040;-78
2021/11/21 19:36:08;;;;;;;13.70;5.75;;;6.00;88.00;;;;;;5024955;28;20107;-79
2021/11/21 19:38:39;;;;;;;13.30;5.88;;;6.00;88.10;;;;;;5025134;28;20064;-75
2021/11/21 19:41:05;;;;;;;12.75;6.50;;;6.00;88.10;;;;;;5023521;28;20037;-74
2021/11/21 19:43:31;;;;;;;14.23;6.55;;;6.00;88.10;;;;;;5020195;28;20037;-71
2021/11/21 19:45:56;;;;;;;13.80;6.25;;;6.00;88.20;;;;;;5021694;28;20396;-75
2021/11/21 19:48:22;;;;;;;11.45;6.38;;;5.90;88.40;;;;;;5024256;28;20057;-76
2021/11/21 19:50:48;;;;;;;12.55;6.80;;;5.90;88.50;;;;;;5019204;28;20042;-77
2021/11/21 19:53:14;;;;;;;13.75;6.53;;;5.90;88.50;;;;;;5020206;28;20037;-74
2021/11/21 19:55:39;;;;;;;11.88;6.53;;;5.90;88.40;;;;;;5022648;28;20579;-73
2021/11/21 19:58:05;;;;;;;14.63;7.28;;;5.80;88.50;;;;;;5020683;28;20830;-79
2021/11/21 20:00:31;;;;;;;12.63;7.30;;;5.80;88.50;;;;;;5024367;28;20038;-78
2021/11/21 20:02:58;;;;;;;13.35;7.72;;;5.80;88.60;;;;;;5015978;28;20032;-80
2021/11/21 20:05:25;;;;;;;15.73;7.15;;;5.80;88.70;;;;;;5029602;28;20373;-76
2021/11/21 20:07:51;;;;;;;12.68;6.63;;;5.80;88.80;;;;;;5025661;28;20117;-74
2021/11/21 20:10:23;;;;;;;14.55;7.63;;;5.70;88.80;;;;;;5027559;28;20029;-78
2021/11/21 20:12:53;;;;;;;14.32;6.97;;;5.70;88.80;;;;;;5023189;28;20036;-80
2021/11/21 20:15:18;;;;;;;18.13;8.45;;;5.70;89.00;;;;;;5033561;28;20265;-79
2021/11/21 20:17:45;;;;;;;17.13;8.55;;;5.70;89.20;;;;;;5022461;28;20443;-73
2021/11/21 20:20:11;;;;;;;18.60;9.85;;;5.70;89.20;;;;;;5017795;28;20030;-76
2021/11/21 20:22:37;;;;;;;19.38;11.13;;;5.60;89.20;;;;;;5035529;28;20364;-79
2021/11/21 20:25:03;;;;;;;19.27;12.10;;;5.60;89.20;;;;;;5027968;28;20037;-73
2021/11/21 20:27:29;;;;;;;16.40;9.88;;;5.60;89.40;;;;;;5015651;28;20818;-77
2021/11/21 20:29:55;;;;;;;14.00;8.55;;;5.60;89.30;;;;;;5054546;28;20038;-73
2021/11/21 20:35:08;;;;;;;14.82;7.35;;;5.60;89.40;;;;;;5042448;28;20040;-73
2021/11/21 20:37:34;;;;;;;13.45;6.45;;;5.60;89.60;;;;;;5038509;28;20033;-71
2021/11/21 20:40:05;;;;;;;13.60;6.55;;;5.60;89.70;;;;;;5036082;28;20361;-74
2021/11/21 20:42:32;;;;;;;12.57;6.97;;;5.60;89.60;;;;;;5057533;28;20036;-74
2021/11/21 20:44:59;;;;;;;13.82;7.57;;;5.60;89.40;;;;;;5059138;28;20036;-71
2021/11/21 20:47:25;;;;;;;14.57;6.93;;;5.50;89.50;;;;;;5041249;28;20611;-74
2021/11/21 20:49:54;;;;;;;15.63;7.72;;;5.60;89.50;;;;;;5040268;28;20049;-77
2021/11/21 20:52:21;;;;;;;16.60;7.63;;;5.50;89.50;;;;;;5034618;28;20040;-74
2021/11/21 20:54:47;;;;;;;26.23;11.57;;;5.50;89.70;;;;;;5034296;28;20072;-74
2021/11/21 20:57:14;;;;;;;17.92;8.27;;;5.50;89.70;;;;;;5035316;28;20032;-72
2021/11/21 20:59:39;;;;;;;14.35;7.30;;;5.50;89.70;;;;;;5034418;28;20587;-73
2021/11/21 21:02:05;;;;;;;13.88;6.70;;;5.40;89.70;;;;;;5036754;28;20064;-71
2021/11/21 21:04:31;;;;;;;15.95;6.90;;;5.40;89.90;;;;;;5065350;28;20037;-70
2021/11/21 21:06:57;;;;;;;15.15;7.18;;;5.40;89.80;;;;;;5037037;28;20038;-71
2021/11/21 21:09:23;;;;;;;12.27;6.90;;;5.50;89.80;;;;;;5037552;28;20463;-71
2021/11/21 21:11:48;;;;;;;16.80;7.40;;;5.40;89.60;;;;;;5034838;28;20029;-71
2021/11/21 21:14:14;;;;;;;14.27;6.20;;;5.40;89.50;;;;;;5030252;28;20045;-78
2021/11/21 21:16:40;;;;;;;19.33;7.90;;;5.40;89.50;;;;;;5040806;28;20029;-76
2021/11/21 21:19:06;;;;;;;13.85;7.70;;;5.40;89.60;;;;;;5044458;28;20082;-76
2021/11/21 21:21:33;;;;;;;13.57;7.10;;;5.40;89.50;;;;;;5040235;28;20045;-77
2021/11/21 21:24:00;;;;;;;14.65;7.25;;;5.30;89.40;;;;;;5055048;28;20037;-74
2021/11/21 21:26:29;;;;;;;13.77;6.68;;;5.40;89.20;;;;;;5024245;28;20047;-75
2021/11/21 21:28:56;;;;;;;14.85;5.97;;;5.40;89.00;;;;;;5060051;28;20062;-72
2021/11/21 21:31:23;;;;;;;13.07;6.53;;;5.40;88.90;;;;;;5041712;28;20112;-72
2021/11/21 21:33:51;;;;;;;11.30;5.53;;;5.40;89.00;;;;;;5035627;28;20033;-72
2021/11/21 21:36:17;;;;;;;15.18;8.23;;;5.30;89.00;;;;;;5031905;28;20488;-70
2021/11/21 21:38:43;;;;;;;18.85;9.32;;;5.30;89.00;;;;;;5039324;28;20025;-70
2021/11/21 21:41:09;;;;;;;21.13;11.07;;;5.30;89.20;;;;;;5039667;28;20045;-71
2021/11/21 21:43:37;;;;;;;18.83;11.43;;;5.20;89.20;;;;;;5053958;28;20033;-76
2021/11/21 21:46:04;;;;;;;22.20;9.88;;;5.30;89.20;;;;;;5063622;28;20036;-74
2021/11/21 21:48:30;;;;;;;17.45;8.98;;;5.30;89.20;;;;;;5039870;28;20033;-71
2021/11/21 21:50:56;;;;;;;19.55;9.98;;;5.20;89.30;;;;;;5042989;28;20033;-73
2021/11/21 21:53:22;;;;;;;17.30;8.75;;;5.20;89.10;;;;;;5041850;28;20095;-70